Time;durP1;ratioP1;P1;durP2;ratioP2;P2;SDS_P1;SDS_P2;PMS_P1;PMS_P2;Temp;Humidity;BMP_temperature;BMP_pressure;BME280_temperature;BME280_humidity;BME280_pressure;Samples;Min_cycle;Max_cycle;Signal;HPM_P1;HPM_P2
2022/12/18 00:01:05;;;;;;;0.27;0.27;;;-7.80;99.90;;;;;;5055045;28;20177;-60
2022/12/18 00:03:35;;;;;;;0.47;0.47;;;-7.80;99.90;;;;;;5054986;28;20173;-60
2022/12/18 00:06:01;;;;;;;0.40;0.40;;;-7.80;99.90;;;;;;5054736;28;20657;-60
2022/12/18 00:08:27;;;;;;;0.10;0.10;;;-7.80;99.90;;;;;;5054778;28;20189;-60
2022/12/18 00:10:53;;;;;;;0.00;0.00;;;-7.80;99.90;;;;;;5054437;28;20719;-60
2022/12/18 00:13:18;;;;;;;1.27;1.27;;;-7.80;99.90;;;;;;5054605;28;20177;-60
2022/12/18 00:15:44;;;;;;;0.00;0.00;;;-7.90;99.90;;;;;;5054632;28;20181;-60
2022/12/18 00:18:09;;;;;;;0.33;0.33;;;-7.90;99.90;;;;;;5054475;28;20227;-60
2022/12/18 00:20:37;;;;;;;0.30;0.30;;;-7.90;99.90;;;;;;5054464;28;20189;-60
2022/12/18 00:23:02;;;;;;;0.30;0.30;;;-7.80;99.90;;;;;;5054085;28;20269;-60
2022/12/18 00:25:28;;;;;;;0.10;0.10;;;-7.80;99.90;;;;;;5053176;28;20265;-61
2022/12/18 00:27:53;;;;;;;0.00;0.00;;;-7.70;99.90;;;;;;5054163;28;20217;-60
2022/12/18 00:30:19;;;;;;;0.43;0.43;;;-7.70;99.90;;;;;;5054464;28;20173;-60
2022/12/18 00:32:44;;;;;;;0.20;0.20;;;-7.70;99.90;;;;;;5052392;28;20193;-60
2022/12/18 00:35:10;;;;;;;1.20;0.60;;;-7.70;99.90;;;;;;5039937;28;20224;-60
2022/12/18 00:37:36;;;;;;;0.47;0.40;;;-7.60;99.90;;;;;;5054226;28;20250;-60
2022/12/18 00:40:02;;;;;;;0.87;0.87;;;-7.60;99.90;;;;;;5054230;28;20659;-61
2022/12/18 00:45:12;;;;;;;0.47;0.43;;;-7.60;99.90;;;;;;5039122;28;20207;-61
2022/12/18 00:47:38;;;;;;;0.10;0.10;;;-7.50;99.90;;;;;;5053795;28;20217;-60
2022/12/18 00:50:04;;;;;;;0.13;0.13;;;-7.50;99.90;;;;;;5053017;28;20572;-60
2022/12/18 00:52:30;;;;;;;0.10;0.10;;;-7.50;99.90;;;;;;5048852;28;20181;-61
2022/12/18 00:54:55;;;;;;;0.17;0.17;;;-7.50;99.90;;;;;;5053788;28;20606;-60
2022/12/18 00:57:21;;;;;;;0.50;0.50;;;-7.40;99.90;;;;;;5053448;28;20236;-60
2022/12/18 00:59:46;;;;;;;0.10;0.10;;;-7.40;99.90;;;;;;5053940;28;20307;-60
2022/12/18 01:02:13;;;;;;;0.67;0.67;;;-7.40;99.90;;;;;;5053611;28;20189;-60
2022/12/18 01:04:39;;;;;;;0.37;0.37;;;-7.40;99.90;;;;;;5052643;28;20251;-61
2022/12/18 01:07:04;;;;;;;0.20;0.20;;;-7.40;99.90;;;;;;5051620;28;20679;-61
2022/12/18 01:09:30;;;;;;;0.00;0.00;;;-7.40;99.90;;;;;;5053273;28;20194;-61
2022/12/18 01:11:55;;;;;;;0.10;0.10;;;-7.40;99.90;;;;;;5052878;28;20677;-60
2022/12/18 01:14:21;;;;;;;0.10;0.10;;;-7.40;99.90;;;;;;5053691;28;20185;-61
2022/12/18 01:16:46;;;;;;;1.83;1.17;;;-7.40;99.90;;;;;;5053382;28;20612;-61
2022/12/18 01:19:12;;;;;;;0.30;0.30;;;-7.40;99.90;;;;;;5053299;28;20185;-60
2022/12/18 01:21:37;;;;;;;0.10;0.10;;;-7.40;99.90;;;;;;5052861;28;20221;-60
2022/12/18 01:24:04;;;;;;;0.47;0.47;;;-7.40;99.90;;;;;;5053552;28;20197;-60
2022/12/18 01:26:29;;;;;;;0.60;0.60;;;-7.40;99.90;;;;;;5052741;28;20391;-61
2022/12/18 01:28:56;;;;;;;1.57;1.47;;;-7.40;99.90;;;;;;5053636;28;20274;-60
2022/12/18 01:31:27;;;;;;;0.33;0.33;;;-7.40;99.90;;;;;;5053347;28;20185;-61
2022/12/18 01:33:54;;;;;;;0.50;0.50;;;-7.40;99.90;;;;;;5053373;28;20174;-60
2022/12/18 01:36:26;;;;;;;0.20;0.20;;;-7.40;99.90;;;;;;5053575;28;20173;-61
2022/12/18 01:38:53;;;;;;;0.20;0.20;;;-7.40;99.90;;;;;;5052899;28;20204;-61
2022/12/18 01:41:21;;;;;;;0.23;0.23;;;-7.40;99.90;;;;;;5052572;28;20219;-60
2022/12/18 01:43:57;;;;;;;0.00;0.00;;;-7.40;99.90;;;;;;5053140;28;20213;-60
2022/12/18 01:46:23;;;;;;;0.33;0.33;;;-7.40;99.90;;;;;;5053288;28;20287;-60
2022/12/18 01:48:54;;;;;;;1.07;1.03;;;-7.40;99.90;;;;;;5052968;28;20517;-60
2022/12/18 01:51:20;;;;;;;1.30;0.50;;;-7.40;99.90;;;;;;5049462;28;20189;-61
2022/12/18 01:53:47;;;;;;;0.13;0.13;;;-7.40;99.90;;;;;;5036914;28;20661;-61
2022/12/18 01:56:16;;;;;;;0.00;0.00;;;-7.40;99.90;;;;;;5053000;28;20185;-61
2022/12/18 01:58:53;;;;;;;0.23;0.23;;;-7.40;99.90;;;;;;5052501;28;20177;-61
2022/12/18 02:01:22;;;;;;;0.17;0.17;;;-7.40;99.90;;;;;;5052458;28;20173;-61
2022/12/18 02:03:47;;;;;;;0.03;0.03;;;-7.40;99.90;;;;;;5036963;28;20227;-61
2022/12/18 02:06:23;;;;;;;0.00;0.00;;;-7.40;99.90;;;;;;5052647;28;20749;-60
2022/12/18 02:08:52;;;;;;;0.10;0.10;;;-7.30;99.90;;;;;;5052128;28;20207;-60
2022/12/18 02:11:41;;;;;;;0.10;0.10;;;-7.30;99.90;;;;;;5051719;28;20228;-60
2022/12/18 02:14:36;;;;;;;0.43;0.43;;;-7.30;99.90;;;;;;5039199;28;20185;-60
2022/12/18 02:17:30;;;;;;;0.60;0.50;;;-7.40;99.90;;;;;;5052242;28;20189;-60
2022/12/18 02:20:17;;;;;;;1.07;1.07;;;-7.40;99.90;;;;;;5037311;28;20189;-60
2022/12/18 02:22:49;;;;;;;0.00;0.00;;;-7.40;99.90;;;;;;5056136;28;20177;-60
2022/12/18 02:25:28;;;;;;;0.00;0.00;;;-7.40;99.90;;;;;;5061071;28;20641;-60
2022/12/18 02:27:57;;;;;;;0.20;0.20;;;-7.40;99.90;;;;;;5036984;28;20258;-60
2022/12/18 02:30:23;;;;;;;0.23;0.23;;;-7.40;99.90;;;;;;5052499;28;20166;-60
2022/12/18 02:32:52;;;;;;;0.10;0.10;;;-7.40;99.90;;;;;;5051808;28;20265;-60
2022/12/18 02:35:24;;;;;;;0.00;0.00;;;-7.40;99.90;;;;;;5048058;28;20185;-60
2022/12/18 02:37:53;;;;;;;0.20;0.20;;;-7.40;99.90;;;;;;5050453;28;20295;-60
2022/12/18 02:40:19;;;;;;;0.50;0.50;;;-7.40;99.90;;;;;;5051922;28;20172;-60
2022/12/18 02:42:45;;;;;;;0.00;0.00;;;-7.40;99.90;;;;;;5051704;28;20670;-60
2022/12/18 02:45:10;;;;;;;0.10;0.10;;;-7.40;99.90;;;;;;5051570;28;20169;-60
2022/12/18 02:47:40;;;;;;;0.13;0.13;;;-7.40;99.90;;;;;;5051554;28;20225;-61
2022/12/18 02:50:27;;;;;;;0.40;0.40;;;-7.40;99.90;;;;;;5051882;28;20173;-61
2022/12/18 02:53:02;;;;;;;5.53;1.03;;;-7.40;99.90;;;;;;5046265;28;20692;-60
2022/12/18 02:55:42;;;;;;;0.87;0.63;;;-7.40;99.90;;;;;;5051513;28;20176;-60
2022/12/18 02:58:16;;;;;;;0.50;0.40;;;-7.40;99.90;;;;;;5037581;28;20247;-61
2022/12/18 03:00:58;;;;;;;0.10;0.10;;;-7.40;99.90;;;;;;5051620;28;20177;-60
2022/12/18 03:03:32;;;;;;;0.00;0.00;;;-7.40;99.90;;;;;;5051583;28;20177;-60
2022/12/18 03:06:10;;;;;;;0.17;0.17;;;-7.40;99.90;;;;;;5041127;28;20552;-60
2022/12/18 03:08:40;;;;;;;0.77;0.77;;;-7.40;99.90;;;;;;5051510;28;20246;-60
2022/12/18 03:11:10;;;;;;;0.00;0.00;;;-7.40;99.90;;;;;;5051389;28;20235;-61
2022/12/18 03:13:40;;;;;;;0.10;0.10;;;-7.30;99.90;;;;;;5051231;28;20185;-60
2022/12/18 03:16:10;;;;;;;0.00;0.00;;;-7.30;99.90;;;;;;5051435;28;20196;-60
2022/12/18 03:18:44;;;;;;;0.00;0.00;;;-7.30;99.90;;;;;;5051571;28;20571;-61
2022/12/18 03:21:14;;;;;;;1.90;0.60;;;-7.30;99.90;;;;;;5052713;28;20552;-61
2022/12/18 03:23:47;;;;;;;0.20;0.20;;;-7.30;99.90;;;;;;5054063;28;20663;-60
2022/12/18 03:26:16;;;;;;;0.07;0.07;;;-7.30;99.90;;;;;;5053825;28;20580;-60
2022/12/18 03:28:55;;;;;;;0.10;0.10;;;-7.30;99.90;;;;;;5054975;28;20169;-60
2022/12/18 03:31:23;;;;;;;0.00;0.00;;;-7.40;99.90;;;;;;5050892;28;20185;-60
2022/12/18 03:33:59;;;;;;;3.00;0.53;;;-7.40;99.90;;;;;;5055382;28;20272;-62
2022/12/18 03:36:25;;;;;;;0.00;0.00;;;-7.40;99.90;;;;;;5055025;28;20192;-61
2022/12/18 03:38:51;;;;;;;0.10;0.10;;;-7.40;99.90;;;;;;5055364;28;20181;-61
2022/12/18 03:41:19;;;;;;;0.10;0.10;;;-7.40;99.90;;;;;;5055062;28;20653;-61
2022/12/18 03:43:59;;;;;;;0.47;0.47;;;-7.40;99.90;;;;;;5055100;28;20184;-61
2022/12/18 03:46:51;;;;;;;1.13;1.13;;;-7.40;99.90;;;;;;5054955;28;20205;-61
2022/12/18 03:49:46;;;;;;;0.23;0.23;;;-7.30;99.90;;;;;;5053847;28;20197;-60
2022/12/18 03:52:22;;;;;;;0.30;0.30;;;-7.30;99.90;;;;;;5051653;28;20216;-61
2022/12/18 03:54:48;;;;;;;0.00;0.00;;;-7.30;99.90;;;;;;5053815;28;20247;-60
2022/12/18 03:57:18;;;;;;;0.00;0.00;;;-7.30;99.90;;;;;;5054937;28;20190;-60
2022/12/18 03:59:47;;;;;;;0.00;0.00;;;-7.40;99.90;;;;;;5054593;28;20189;-61
2022/12/18 04:02:13;;;;;;;0.50;0.50;;;-7.40;99.90;;;;;;5039539;28;20235;-61
2022/12/18 04:04:40;;;;;;;0.57;0.57;;;-7.40;99.90;;;;;;5054916;28;20180;-61
2022/12/18 04:07:07;;;;;;;0.10;0.10;;;-7.40;99.90;;;;;;5054271;28;20209;-60
2022/12/18 04:09:34;;;;;;;0.03;0.03;;;-7.40;99.90;;;;;;5053259;28;20170;-61
2022/12/18 04:11:59;;;;;;;0.10;0.10;;;-7.40;99.90;;;;;;5054440;28;20233;-60
2022/12/18 04:14:25;;;;;;;0.10;0.10;;;-7.40;99.90;;;;;;5055150;28;20625;-61
2022/12/18 04:16:51;;;;;;;0.00;0.00;;;-7.40;99.90;;;;;;5053028;28;20645;-61
2022/12/18 04:19:16;;;;;;;0.40;0.40;;;-7.40;99.90;;;;;;5054552;28;20192;-61
2022/12/18 04:21:42;;;;;;;0.20;0.20;;;-7.40;99.90;;;;;;5054667;28;20195;-60
2022/12/18 04:24:08;;;;;;;0.27;0.27;;;-7.40;99.90;;;;;;5054143;28;20244;-60
2022/12/18 04:26:33;;;;;;;0.03;0.03;;;-7.40;99.90;;;;;;5054316;28;20217;-60
2022/12/18 04:28:59;;;;;;;0.00;0.00;;;-7.40;99.90;;;;;;5054554;28;20304;-60
2022/12/18 04:31:25;;;;;;;0.20;0.20;;;-7.40;99.90;;;;;;5053513;28;20181;-60
2022/12/18 04:33:51;;;;;;;0.00;0.00;;;-7.50;99.90;;;;;;5052073;28;20185;-60
2022/12/18 04:36:16;;;;;;;0.27;0.27;;;-7.50;99.90;;;;;;5051847;28;20196;-60
2022/12/18 04:38:42;;;;;;;0.10;0.10;;;-7.50;99.90;;;;;;5052597;28;20213;-60
2022/12/18 04:41:07;;;;;;;0.10;0.10;;;-7.60;99.90;;;;;;5053635;28;20584;-60
2022/12/18 04:43:33;;;;;;;0.20;0.20;;;-7.60;99.90;;;;;;5052614;28;20655;-60
2022/12/18 04:46:07;;;;;;;0.00;0.00;;;-7.60;99.90;;;;;;5053532;28;20169;-60
2022/12/18 04:48:33;;;;;;;0.30;0.30;;;-7.60;99.90;;;;;;5053873;28;20537;-60
2022/12/18 04:50:59;;;;;;;0.23;0.23;;;-7.60;99.90;;;;;;5053621;28;20770;-60
2022/12/18 04:53:24;;;;;;;0.43;0.43;;;-7.70;99.90;;;;;;5053499;28;20260;-60
2022/12/18 04:55:50;;;;;;;0.10;0.10;;;-7.70;99.90;;;;;;5053510;28;20213;-60
2022/12/18 04:58:15;;;;;;;0.00;0.00;;;-7.70;99.90;;;;;;5053674;28;20256;-60
2022/12/18 05:00:41;;;;;;;0.50;0.50;;;-7.70;99.90;;;;;;5053366;28;20192;-60
2022/12/18 05:03:06;;;;;;;0.33;0.33;;;-7.70;99.90;;;;;;5053705;28;20185;-60
2022/12/18 05:05:34;;;;;;;0.10;0.10;;;-7.70;99.90;;;;;;5053318;28;20235;-60
2022/12/18 05:08:00;;;;;;;0.00;0.00;;;-7.70;99.90;;;;;;5052066;28;20249;-61
2022/12/18 05:10:25;;;;;;;1.90;0.60;;;-7.70;99.90;;;;;;5053508;28;20216;-61
2022/12/18 05:13:01;;;;;;;1.17;0.50;;;-7.60;99.90;;;;;;5053436;28;20229;-61
2022/12/18 05:15:28;;;;;;;0.30;0.30;;;-7.60;99.90;;;;;;5053456;28;20186;-61
2022/12/18 05:17:54;;;;;;;0.00;0.00;;;-7.60;99.90;;;;;;5053194;28;20178;-61
2022/12/18 05:20:19;;;;;;;0.00;0.00;;;-7.50;99.90;;;;;;5051690;28;20185;-61
2022/12/18 05:22:45;;;;;;;0.77;0.60;;;-7.50;99.90;;;;;;5053299;28;20181;-61
2022/12/18 05:25:10;;;;;;;0.00;0.00;;;-7.40;99.90;;;;;;5053318;28;20228;-61
2022/12/18 05:27:36;;;;;;;0.07;0.07;;;-7.30;99.90;;;;;;5052951;28;20270;-61
2022/12/18 05:30:02;;;;;;;0.93;0.50;;;-7.30;99.90;;;;;;5052950;28;20177;-61
2022/12/18 05:32:27;;;;;;;0.00;0.00;;;-7.30;99.90;;;;;;5052956;28;20228;-63
2022/12/18 05:34:53;;;;;;;0.10;0.10;;;-7.30;99.90;;;;;;5053732;28;20714;-61
2022/12/18 05:37:18;;;;;;;0.00;0.00;;;-7.20;99.90;;;;;;5053022;28;20211;-61
2022/12/18 05:39:44;;;;;;;0.00;0.00;;;-7.20;99.90;;;;;;5051240;28;20180;-61
2022/12/18 05:42:09;;;;;;;1.17;0.83;;;-7.20;99.90;;;;;;5051835;28;20239;-61
2022/12/18 05:44:35;;;;;;;0.00;0.00;;;-7.20;99.90;;;;;;5052825;28;20173;-61
2022/12/18 05:47:00;;;;;;;0.00;0.00;;;-7.20;99.90;;;;;;5052616;28;20271;-61
2022/12/18 05:49:26;;;;;;;0.00;0.00;;;-7.20;99.90;;;;;;5052625;28;20181;-61
2022/12/18 05:51:52;;;;;;;0.07;0.07;;;-7.20;99.90;;;;;;5050873;28;20280;-61
2022/12/18 05:54:17;;;;;;;0.17;0.17;;;-7.10;99.90;;;;;;5052432;28;20549;-61
2022/12/18 05:56:43;;;;;;;0.00;0.00;;;-7.10;99.90;;;;;;5052618;28;20181;-61
2022/12/18 05:59:09;;;;;;;0.10;0.10;;;-7.10;99.90;;;;;;5053026;28;20185;-61
2022/12/18 06:01:35;;;;;;;0.47;0.47;;;-7.10;99.90;;;;;;5052554;28;20612;-61
2022/12/18 06:04:00;;;;;;;0.00;0.00;;;-7.20;99.90;;;;;;5051501;28;20266;-61
2022/12/18 06:06:27;;;;;;;0.00;0.00;;;-7.20;99.90;;;;;;5052122;28;20907;-61
2022/12/18 06:08:54;;;;;;;6.53;0.30;;;-7.20;99.90;;;;;;5052830;28;20599;-61
2022/12/18 06:11:25;;;;;;;0.00;0.00;;;-7.20;99.90;;;;;;5052322;28;20596;-61
2022/12/18 06:13:52;;;;;;;0.10;0.10;;;-7.20;99.90;;;;;;5052594;28;20193;-61
2022/12/18 06:16:17;;;;;;;0.57;0.57;;;-7.20;99.90;;;;;;5050477;28;20694;-61
2022/12/18 06:18:43;;;;;;;0.53;0.53;;;-7.20;99.90;;;;;;5052525;28;20205;-61
2022/12/18 06:21:09;;;;;;;0.20;0.20;;;-7.20;99.90;;;;;;5050877;28;20212;-61
2022/12/18 06:23:35;;;;;;;0.20;0.20;;;-7.20;99.90;;;;;;5052122;28;20560;-61
2022/12/18 06:26:09;;;;;;;0.30;0.30;;;-7.20;99.90;;;;;;5052571;28;20173;-61
2022/12/18 06:28:34;;;;;;;0.20;0.20;;;-7.20;99.90;;;;;;5051130;28;20185;-61
2022/12/18 06:31:00;;;;;;;0.53;0.10;;;-7.20;99.90;;;;;;5052219;28;20185;-61
2022/12/18 06:33:27;;;;;;;1.87;1.70;;;-7.20;99.90;;;;;;5052083;28;20186;-61
2022/12/18 06:35:54;;;;;;;0.00;0.00;;;-7.20;99.90;;;;;;5052098;28;20185;-61
2022/12/18 06:38:19;;;;;;;0.00;0.00;;;-7.20;99.90;;;;;;5051966;28;20184;-61
2022/12/18 06:40:45;;;;;;;0.00;0.00;;;-7.10;99.90;;;;;;5051967;28;20173;-61
2022/12/18 06:43:10;;;;;;;0.00;0.00;;;-7.10;99.90;;;;;;5051846;28;20280;-61
2022/12/18 06:45:36;;;;;;;0.10;0.10;;;-7.10;99.90;;;;;;5050807;28;20219;-61
2022/12/18 06:48:01;;;;;;;0.00;0.00;;;-7.10;99.90;;;;;;5050738;28;20217;-61
2022/12/18 06:50:27;;;;;;;0.07;0.07;;;-7.10;99.90;;;;;;5051285;28;20216;-61
2022/12/18 06:52:52;;;;;;;0.10;0.10;;;-7.10;99.90;;;;;;5049966;28;20184;-61
2022/12/18 06:55:18;;;;;;;0.00;0.00;;;-7.00;99.90;;;;;;5050835;28;20637;-61
2022/12/18 06:57:44;;;;;;;0.40;0.40;;;-7.10;99.90;;;;;;5051449;28;20184;-61
2022/12/18 07:00:10;;;;;;;0.10;0.10;;;-7.10;99.90;;;;;;5051692;28;20217;-61
2022/12/18 07:02:35;;;;;;;0.00;0.00;;;-7.10;99.90;;;;;;5050137;28;20662;-61
2022/12/18 07:05:01;;;;;;;0.30;0.30;;;-7.10;99.90;;;;;;5051338;28;20200;-61
2022/12/18 07:07:27;;;;;;;0.10;0.10;;;-7.10;99.90;;;;;;5051558;28;20707;-61
2022/12/18 07:09:52;;;;;;;0.80;0.80;;;-7.10;99.90;;;;;;5051761;28;20252;-61
2022/12/18 07:12:18;;;;;;;0.00;0.00;;;-7.10;99.90;;;;;;5051247;28;20224;-61
2022/12/18 07:14:44;;;;;;;0.40;0.40;;;-7.20;99.90;;;;;;5051655;28;20174;-61
2022/12/18 07:17:09;;;;;;;0.10;0.10;;;-7.20;99.90;;;;;;5051364;28;20177;-61
2022/12/18 07:19:35;;;;;;;0.47;0.30;;;-7.10;99.90;;;;;;5051663;28;20181;-61
2022/12/18 07:22:00;;;;;;;0.20;0.20;;;-7.20;99.90;;;;;;5051213;28;20544;-60
2022/12/18 07:24:26;;;;;;;0.20;0.20;;;-7.20;99.90;;;;;;5049173;28;20235;-61
2022/12/18 07:26:52;;;;;;;0.07;0.07;;;-7.20;99.90;;;;;;5050082;28;20189;-61
2022/12/18 07:29:18;;;;;;;0.00;0.00;;;-7.20;99.90;;;;;;5051669;28;20177;-62
2022/12/18 07:31:44;;;;;;;0.20;0.20;;;-7.20;99.90;;;;;;5051596;28;20239;-61
2022/12/18 07:34:13;;;;;;;0.10;0.10;;;-7.20;99.90;;;;;;5051063;28;20193;-61
2022/12/18 07:36:39;;;;;;;0.20;0.20;;;-7.30;99.90;;;;;;5051502;28;20198;-61
2022/12/18 07:39:04;;;;;;;0.00;0.00;;;-7.30;99.90;;;;;;5051470;28;20545;-61
2022/12/18 07:41:30;;;;;;;0.00;0.00;;;-7.30;99.90;;;;;;5051392;28;20178;-61
2022/12/18 07:43:56;;;;;;;0.00;0.00;;;-7.30;99.90;;;;;;5051426;28;20193;-62
2022/12/18 07:46:22;;;;;;;0.00;0.00;;;-7.30;99.90;;;;;;5051323;28;20212;-62
2022/12/18 07:48:47;;;;;;;0.47;0.47;;;-7.30;99.90;;;;;;5050931;28;20483;-62
2022/12/18 07:51:13;;;;;;;0.00;0.00;;;-7.20;99.90;;;;;;5049667;28;20181;-61
2022/12/18 07:53:39;;;;;;;0.10;0.10;;;-7.20;99.90;;;;;;5051349;28;20189;-61
2022/12/18 07:56:08;;;;;;;0.10;0.10;;;-7.20;99.90;;;;;;5051138;28;20181;-61
2022/12/18 07:58:35;;;;;;;0.13;0.13;;;-7.20;99.90;;;;;;5051296;28;20234;-61
2022/12/18 08:01:06;;;;;;;0.00;0.00;;;-7.20;99.90;;;;;;5051573;28;20550;-61
2022/12/18 08:03:32;;;;;;;0.10;0.10;;;-7.20;99.90;;;;;;5051697;28;20180;-61
2022/12/18 08:06:03;;;;;;;0.10;0.10;;;-7.20;99.90;;;;;;5051371;28;20254;-60
2022/12/18 08:08:29;;;;;;;0.00;0.00;;;-7.20;99.90;;;;;;5053155;28;20185;-61
2022/12/18 08:10:55;;;;;;;0.00;0.00;;;-7.20;99.90;;;;;;5055059;28;20181;-62
2022/12/18 08:13:21;;;;;;;0.53;0.50;;;-7.20;99.90;;;;;;5055080;28;20189;-61
2022/12/18 08:16:03;;;;;;;1.70;0.70;;;-7.10;99.90;;;;;;5054841;28;20549;-59
2022/12/18 08:18:28;;;;;;;0.00;0.00;;;-7.10;99.90;;;;;;5054442;28;20185;-58
2022/12/18 08:20:54;;;;;;;0.00;0.00;;;-7.10;99.90;;;;;;5060035;28;20269;-58
2022/12/18 08:23:20;;;;;;;0.00;0.00;;;-7.00;99.90;;;;;;5054869;28;20181;-57
2022/12/18 08:25:46;;;;;;;0.10;0.10;;;-7.00;99.90;;;;;;5054604;28;20201;-58
2022/12/18 08:28:11;;;;;;;0.20;0.20;;;-6.90;99.90;;;;;;5055182;28;20225;-58
2022/12/18 08:30:37;;;;;;;0.00;0.00;;;-7.00;99.90;;;;;;5054458;28;20193;-58
2022/12/18 08:33:02;;;;;;;0.20;0.20;;;-6.90;99.90;;;;;;5054629;28;20182;-57
2022/12/18 08:35:28;;;;;;;0.00;0.00;;;-6.90;99.90;;;;;;5054302;28;20609;-57
2022/12/18 08:37:53;;;;;;;0.00;0.00;;;-6.90;99.90;;;;;;5060984;28;20185;-59
2022/12/18 08:40:19;;;;;;;0.00;0.00;;;-6.80;99.90;;;;;;5065136;28;20209;-58
2022/12/18 08:45:29;;;;;;;0.10;0.10;;;-6.70;99.90;;;;;;5054876;28;20687;-59
2022/12/18 08:47:55;;;;;;;4.47;1.30;;;-6.70;99.90;;;;;;5054228;28;20212;-58
2022/12/18 08:50:20;;;;;;;0.00;0.00;;;-6.70;99.90;;;;;;5053939;28;20548;-58
2022/12/18 08:52:46;;;;;;;0.30;0.30;;;-6.60;99.90;;;;;;5054233;28;20182;-59
2022/12/18 08:55:11;;;;;;;0.23;0.23;;;-6.60;99.90;;;;;;5054186;28;20208;-58
2022/12/18 08:57:37;;;;;;;1.23;0.43;;;-6.60;99.90;;;;;;5053909;28;20227;-58
2022/12/18 09:00:04;;;;;;;0.33;0.33;;;-6.60;99.90;;;;;;5054223;28;20184;-58
2022/12/18 09:02:29;;;;;;;0.13;0.13;;;-6.60;99.90;;;;;;5053792;28;20181;-59
2022/12/18 09:04:55;;;;;;;0.00;0.00;;;-6.50;99.90;;;;;;5053406;28;20256;-59
2022/12/18 09:07:20;;;;;;;0.00;0.00;;;-6.50;99.90;;;;;;5053279;28;20344;-59
2022/12/18 09:09:46;;;;;;;0.00;0.00;;;-6.40;99.90;;;;;;5054055;28;20173;-59
2022/12/18 09:12:11;;;;;;;0.00;0.00;;;-6.30;99.90;;;;;;5053846;28;20312;-59
2022/12/18 09:14:37;;;;;;;0.00;0.00;;;-6.20;99.90;;;;;;5053899;28;20571;-60
2022/12/18 09:17:02;;;;;;;0.53;0.53;;;-6.20;99.90;;;;;;5053766;28;20189;-59
2022/12/18 09:19:28;;;;;;;0.00;0.00;;;-6.10;99.90;;;;;;5053555;28;20178;-60
2022/12/18 09:21:54;;;;;;;0.00;0.00;;;-6.00;99.90;;;;;;5047831;28;20265;-60
2022/12/18 09:24:19;;;;;;;0.00;0.00;;;-5.90;99.90;;;;;;5053592;28;20215;-59
2022/12/18 09:26:45;;;;;;;0.00;0.00;;;-5.80;99.90;;;;;;5053744;28;20213;-59
2022/12/18 09:29:10;;;;;;;0.87;0.73;;;-5.70;99.90;;;;;;5053684;28;20181;-59
2022/12/18 09:31:37;;;;;;;0.00;0.00;;;-5.60;99.90;;;;;;5053678;28;20645;-59
2022/12/18 09:34:06;;;;;;;0.00;0.00;;;-5.60;99.90;;;;;;5052447;28;20182;-59
2022/12/18 09:36:31;;;;;;;0.60;0.43;;;-5.50;99.90;;;;;;5053492;28;20544;-59
2022/12/18 09:38:57;;;;;;;0.00;0.00;;;-5.40;99.90;;;;;;5053031;28;20189;-60
2022/12/18 09:41:37;;;;;;;5.83;0.83;;;-5.40;99.90;;;;;;5053417;28;20268;-60
2022/12/18 09:44:15;;;;;;;0.00;0.00;;;-5.40;99.90;;;;;;5053044;28;20548;-59
2022/12/18 09:46:47;;;;;;;0.30;0.30;;;-5.30;99.90;;;;;;5052652;28;20205;-60
2022/12/18 09:49:17;;;;;;;0.00;0.00;;;-5.30;99.90;;;;;;5053014;28;20188;-59
2022/12/18 09:51:55;;;;;;;0.77;0.57;;;-5.20;99.90;;;;;;5052388;28;20190;-59
2022/12/18 09:54:43;;;;;;;0.00;0.00;;;-5.10;99.90;;;;;;5052650;28;20227;-59
2022/12/18 09:57:19;;;;;;;0.00;0.00;;;-5.10;99.90;;;;;;5051137;28;20174;-60
2022/12/18 09:59:51;;;;;;;0.10;0.10;;;-4.90;99.90;;;;;;5052652;28;20185;-59
2022/12/18 10:02:23;;;;;;;1.10;1.10;;;-4.80;99.90;;;;;;5052039;28;20420;-59
2022/12/18 10:05:17;;;;;;;0.20;0.20;;;-4.80;99.90;;;;;;5053134;28;20540;-59
2022/12/18 10:08:23;;;;;;;0.70;0.70;;;-4.70;99.90;;;;;;5047490;28;20213;-59
2022/12/18 10:10:52;;;;;;;0.03;0.03;;;-4.60;99.90;;;;;;5049757;28;20189;-60
2022/12/18 10:13:35;;;;;;;0.20;0.20;;;-4.40;99.90;;;;;;5052411;28;20591;-59
2022/12/18 10:16:27;;;;;;;0.20;0.20;;;-4.30;99.90;;;;;;5050685;28;20181;-59
2022/12/18 10:19:10;;;;;;;0.30;0.30;;;-4.20;99.90;;;;;;5052660;28;20189;-59
2022/12/18 10:22:10;;;;;;;0.00;0.00;;;-4.10;99.90;;;;;;5052113;28;20177;-59
2022/12/18 10:24:47;;;;;;;0.83;0.57;;;-4.00;99.90;;;;;;5052666;28;20544;-59
2022/12/18 10:27:21;;;;;;;0.30;0.30;;;-4.00;99.90;;;;;;5052323;28;20213;-59
2022/12/18 10:29:46;;;;;;;0.50;0.50;;;-3.90;99.90;;;;;;5052297;28;20174;-59
2022/12/18 10:32:28;;;;;;;0.00;0.00;;;-3.90;99.90;;;;;;5051634;28;20690;-59
2022/12/18 10:34:56;;;;;;;0.00;0.00;;;-3.90;99.90;;;;;;5040935;28;20572;-59
2022/12/18 10:37:24;;;;;;;0.20;0.20;;;-3.90;99.90;;;;;;5051918;28;20174;-60
2022/12/18 10:40:12;;;;;;;0.40;0.40;;;-3.90;99.90;;;;;;5052006;28;20223;-59
2022/12/18 10:42:37;;;;;;;0.00;0.00;;;-3.80;99.90;;;;;;5050994;28;20539;-59
2022/12/18 10:45:10;;;;;;;0.83;0.83;;;-3.90;99.90;;;;;;5050603;28;20170;-59
2022/12/18 10:47:36;;;;;;;0.13;0.13;;;-3.80;99.90;;;;;;5051963;28;20220;-59
2022/12/18 10:50:02;;;;;;;0.00;0.00;;;-3.80;99.90;;;;;;5051783;28;20205;-59
2022/12/18 10:52:27;;;;;;;0.10;0.10;;;-3.70;99.90;;;;;;5044561;28;20225;-61
2022/12/18 10:54:58;;;;;;;0.30;0.30;;;-3.60;99.90;;;;;;5050832;28;20641;-59
2022/12/18 10:57:26;;;;;;;0.00;0.00;;;-3.60;99.90;;;;;;5051961;28;20235;-59
2022/12/18 10:59:56;;;;;;;0.00;0.00;;;-3.50;99.90;;;;;;5051808;28;20184;-60
2022/12/18 11:02:34;;;;;;;0.27;0.27;;;-3.50;99.90;;;;;;5051522;28;20181;-60
2022/12/18 11:05:00;;;;;;;0.00;0.00;;;-3.40;99.90;;;;;;5051779;28;20181;-59
2022/12/18 11:07:46;;;;;;;0.43;0.43;;;-3.30;99.90;;;;;;5051582;28;20216;-59
2022/12/18 11:10:17;;;;;;;0.20;0.20;;;-3.20;99.90;;;;;;5051267;28;20188;-60
2022/12/18 11:12:42;;;;;;;0.30;0.30;;;-3.10;99.90;;;;;;5051620;28;20237;-59
2022/12/18 11:15:23;;;;;;;0.00;0.00;;;-3.00;99.90;;;;;;5051552;28;20571;-59
2022/12/18 11:17:50;;;;;;;0.40;0.40;;;-2.90;99.90;;;;;;5051220;28;20687;-59
2022/12/18 11:20:18;;;;;;;0.10;0.10;;;-2.80;99.90;;;;;;5051765;28;20197;-59
2022/12/18 11:23:02;;;;;;;0.33;0.33;;;-2.70;99.90;;;;;;5051155;28;20185;-58
2022/12/18 11:25:28;;;;;;;0.33;0.10;;;-2.50;99.90;;;;;;5050565;28;20177;-60
2022/12/18 11:27:57;;;;;;;0.00;0.00;;;-2.50;99.90;;;;;;5051331;28;20255;-59
2022/12/18 11:30:34;;;;;;;0.73;0.57;;;-2.40;99.90;;;;;;5051582;28;20227;-59
2022/12/18 11:33:09;;;;;;;0.00;0.00;;;-2.30;99.90;;;;;;5050236;28;20180;-59
2022/12/18 11:35:41;;;;;;;0.30;0.30;;;-2.20;99.90;;;;;;5031748;28;20182;-59
2022/12/18 11:38:54;;;;;;;0.00;0.00;;;-2.30;99.90;;;;;;5046322;28;20205;-58
2022/12/18 11:42:08;;;;;;;0.10;0.10;;;-2.20;99.90;;;;;;5039478;28;20202;-59
2022/12/18 11:44:19;;;;;;;0.83;0.73;;;-2.10;99.90;;;;;;5054930;28;20177;-58
2022/12/18 11:46:55;;;;;;;0.10;0.10;;;-2.00;99.90;;;;;;5055490;28;20624;-59
2022/12/18 11:49:26;;;;;;;0.00;0.00;;;-2.00;99.90;;;;;;5054183;28;20571;-58
2022/12/18 11:52:00;;;;;;;0.10;0.10;;;-2.00;99.90;;;;;;5055321;28;20675;-59
2022/12/18 11:54:29;;;;;;;0.00;0.00;;;-1.90;99.90;;;;;;5055630;28;20173;-59
2022/12/18 11:57:20;;;;;;;0.00;0.00;;;-1.90;99.90;;;;;;5055458;28;20251;-59
2022/12/18 11:59:49;;;;;;;0.00;0.00;;;-1.80;99.90;;;;;;5055241;28;20251;-59
2022/12/18 12:02:38;;;;;;;0.10;0.10;;;-1.80;99.90;;;;;;5055261;28;20193;-59
2022/12/18 12:05:19;;;;;;;0.20;0.20;;;-1.80;99.90;;;;;;5056462;28;20540;-59
2022/12/18 12:07:55;;;;;;;0.00;0.00;;;-1.80;99.90;;;;;;5055158;28;20366;-59
2022/12/18 12:10:35;;;;;;;0.10;0.10;;;-1.80;99.90;;;;;;5055200;28;20209;-59
2022/12/18 12:13:29;;;;;;;0.07;0.07;;;-1.80;99.90;;;;;;5054383;28;20335;-59
2022/12/18 12:16:07;;;;;;;0.07;0.07;;;-1.70;99.90;;;;;;5046118;28;20208;-59
2022/12/18 12:18:53;;;;;;;0.13;0.13;;;-1.50;99.90;;;;;;5053753;28;20684;-59
2022/12/18 12:21:33;;;;;;;0.00;0.00;;;-1.40;99.90;;;;;;5054334;28;20189;-58
2022/12/18 12:24:11;;;;;;;0.07;0.07;;;-1.40;99.90;;;;;;5054633;28;20622;-59
2022/12/18 12:27:01;;;;;;;0.00;0.00;;;-1.40;99.90;;;;;;5054848;28;20215;-59
2022/12/18 12:30:02;;;;;;;0.07;0.07;;;-1.40;99.90;;;;;;5054350;28;20262;-59
2022/12/18 12:32:43;;;;;;;0.10;0.10;;;-1.40;99.90;;;;;;5047128;28;20700;-60
2022/12/18 12:35:39;;;;;;;0.23;0.23;;;-1.40;99.90;;;;;;5038714;28;20193;-59
2022/12/18 12:38:10;;;;;;;0.60;0.60;;;-1.40;99.90;;;;;;5054151;28;20216;-59
2022/12/18 12:40:52;;;;;;;0.00;0.00;;;-1.40;99.90;;;;;;5054360;28;20550;-59
2022/12/18 12:43:24;;;;;;;0.00;0.00;;;-1.40;99.90;;;;;;5054741;28;20230;-59
2022/12/18 12:46:06;;;;;;;0.17;0.17;;;-1.40;99.90;;;;;;5053838;28;20190;-59
2022/12/18 12:48:48;;;;;;;0.17;0.17;;;-1.30;99.90;;;;;;5054217;28;20236;-59
2022/12/18 12:51:41;;;;;;;0.20;0.20;;;-1.40;99.90;;;;;;5047178;28;20174;-59
2022/12/18 12:54:15;;;;;;;0.20;0.20;;;-1.30;99.90;;;;;;5046724;28;20535;-59
2022/12/18 12:57:03;;;;;;;1.10;0.20;;;-1.40;99.90;;;;;;5053808;28;20227;-59
2022/12/18 12:59:52;;;;;;;0.00;0.00;;;-1.40;99.90;;;;;;5051476;28;20209;-60
2022/12/18 13:02:35;;;;;;;0.30;0.30;;;-1.40;99.90;;;;;;5054289;28;20178;-60
2022/12/18 13:05:34;;;;;;;0.10;0.10;;;-1.40;99.90;;;;;;5054097;28;20625;-59
2022/12/18 13:08:08;;;;;;;0.20;0.20;;;-1.30;99.90;;;;;;5053827;28;20236;-59
2022/12/18 13:10:39;;;;;;;0.10;0.10;;;-1.40;99.90;;;;;;5034277;28;20252;-59